Aviation Digital Data Service (ADDS)

Output produced by METARs form (0811 UTC 27 March 2015)
found at http://www.aviationweather.gov/adds/metars/
 
KESN 270821Z AUTO 36012G17KT 10SM -DZ BKN012 OVC017 08/08 A2979 RMK AO2 T00790079